sensor_id;sensor_type;location;lat;lon;timestamp;temperature;humidity
37274;DHT22;23161;51.250;5.554;2023-03-01T00:00:38;-2.80;99.90
37274;DHT22;23161;51.250;5.554;2023-03-01T00:03:04;-2.80;99.90
37274;DHT22;23161;51.250;5.554;2023-03-01T00:05:29;-2.80;99.90
37274;DHT22;23161;51.250;5.554;2023-03-01T00:07:55;-2.90;99.90
37274;DHT22;23161;51.250;5.554;2023-03-01T00:10:21;-2.90;99.90
37274;DHT22;23161;51.250;5.554;2023-03-01T00:12:47;-2.90;99.90
37274;DHT22;23161;51.250;5.554;2023-03-01T00:15:12;-3.00;99.90
37274;DHT22;23161;51.250;5.554;2023-03-01T00:17:38;-3.00;99.90
37274;DHT22;23161;51.250;5.554;2023-03-01T00:20:05;-2.90;99.90
37274;DHT22;23161;51.250;5.554;2023-03-01T00:22:36;-3.00;99.90
37274;DHT22;23161;51.250;5.554;2023-03-01T00:25:03;-3.00;99.90
37274;DHT22;23161;51.250;5.554;2023-03-01T00:27:29;-3.00;99.90
37274;DHT22;23161;51.250;5.554;2023-03-01T00:29:55;-3.00;99.90
37274;DHT22;23161;51.250;5.554;2023-03-01T00:32:21;-3.10;99.90
37274;DHT22;23161;51.250;5.554;2023-03-01T00:34:47;-3.00;99.90
37274;DHT22;23161;51.250;5.554;2023-03-01T00:37:21;-3.10;99.90
37274;DHT22;23161;51.250;5.554;2023-03-01T00:39:47;-3.10;99.90
37274;DHT22;23161;51.250;5.554;2023-03-01T00:42:13;-3.10;99.90
37274;DHT22;23161;51.250;5.554;2023-03-01T00:44:39;-3.10;99.90
37274;DHT22;23161;51.250;5.554;2023-03-01T00:47:05;-3.00;99.90
37274;DHT22;23161;51.250;5.554;2023-03-01T00:49:31;-3.10;99.90
37274;DHT22;23161;51.250;5.554;2023-03-01T00:51:57;-3.00;99.90
37274;DHT22;23161;51.250;5.554;2023-03-01T00:54:23;-3.00;99.90
37274;DHT22;23161;51.250;5.554;2023-03-01T00:56:49;-3.10;99.90
37274;DHT22;23161;51.250;5.554;2023-03-01T00:59:14;-3.10;99.90
37274;DHT22;23161;51.250;5.554;2023-03-01T01:01:40;-3.20;99.90
37274;DHT22;23161;51.250;5.554;2023-03-01T01:04:11;-3.10;99.90
37274;DHT22;23161;51.250;5.554;2023-03-01T01:06:46;-3.20;99.90
37274;DHT22;23161;51.250;5.554;2023-03-01T01:09:15;-3.20;99.90
37274;DHT22;23161;51.250;5.554;2023-03-01T01:11:49;-3.20;99.90
37274;DHT22;23161;51.250;5.554;2023-03-01T01:14:16;-3.30;99.90
37274;DHT22;23161;51.250;5.554;2023-03-01T01:16:42;-3.40;99.90
37274;DHT22;23161;51.250;5.554;2023-03-01T01:19:10;-3.40;99.90
37274;DHT22;23161;51.250;5.554;2023-03-01T01:21:36;-3.40;99.90
37274;DHT22;23161;51.250;5.554;2023-03-01T01:24:03;-3.40;99.90
37274;DHT22;23161;51.250;5.554;2023-03-01T01:26:31;-3.40;99.90
37274;DHT22;23161;51.250;5.554;2023-03-01T01:28:58;-3.40;99.90
37274;DHT22;23161;51.250;5.554;2023-03-01T01:31:25;-3.50;99.90
37274;DHT22;23161;51.250;5.554;2023-03-01T01:33:55;-3.50;99.90
37274;DHT22;23161;51.250;5.554;2023-03-01T01:36:21;-3.50;99.90
37274;DHT22;23161;51.250;5.554;2023-03-01T01:38:47;-3.60;99.90
37274;DHT22;23161;51.250;5.554;2023-03-01T01:41:13;-3.60;99.90
37274;DHT22;23161;51.250;5.554;2023-03-01T01:43:43;-3.60;99.90
37274;DHT22;23161;51.250;5.554;2023-03-01T01:46:28;-3.60;99.90
37274;DHT22;23161;51.250;5.554;2023-03-01T01:49:00;-3.60;99.90
37274;DHT22;23161;51.250;5.554;2023-03-01T01:51:37;-3.60;99.90
37274;DHT22;23161;51.250;5.554;2023-03-01T01:54:09;-3.70;99.90
37274;DHT22;23161;51.250;5.554;2023-03-01T01:56:38;-3.70;99.90
37274;DHT22;23161;51.250;5.554;2023-03-01T01:59:04;-3.70;99.90
37274;DHT22;23161;51.250;5.554;2023-03-01T02:01:31;-3.70;99.90
37274;DHT22;23161;51.250;5.554;2023-03-01T02:03:57;-3.80;99.90
37274;DHT22;23161;51.250;5.554;2023-03-01T02:06:33;-3.80;99.90
37274;DHT22;23161;51.250;5.554;2023-03-01T02:09:05;-3.80;99.90
37274;DHT22;23161;51.250;5.554;2023-03-01T02:11:33;-3.80;99.90
37274;DHT22;23161;51.250;5.554;2023-03-01T02:13:59;-3.80;99.90
37274;DHT22;23161;51.250;5.554;2023-03-01T02:16:26;-3.80;99.90
37274;DHT22;23161;51.250;5.554;2023-03-01T02:18:52;-3.70;99.90
37274;DHT22;23161;51.250;5.554;2023-03-01T02:24:30;-3.80;99.90
37274;DHT22;23161;51.250;5.554;2023-03-01T02:26:58;-3.90;99.90
37274;DHT22;23161;51.250;5.554;2023-03-01T02:29:27;-3.90;99.90
37274;DHT22;23161;51.250;5.554;2023-03-01T02:31:56;-4.00;99.90
37274;DHT22;23161;51.250;5.554;2023-03-01T02:34:25;-4.00;99.90
37274;DHT22;23161;51.250;5.554;2023-03-01T02:37:09;-4.00;99.90
37274;DHT22;23161;51.250;5.554;2023-03-01T02:39:42;-4.10;99.90
37274;DHT22;23161;51.250;5.554;2023-03-01T02:42:18;-4.10;99.90
37274;DHT22;23161;51.250;5.554;2023-03-01T02:44:49;-4.20;99.90
37274;DHT22;23161;51.250;5.554;2023-03-01T02:47:15;-4.20;99.90
37274;DHT22;23161;51.250;5.554;2023-03-01T02:49:41;-4.20;99.90
37274;DHT22;23161;51.250;5.554;2023-03-01T02:52:43;-4.20;99.90
37274;DHT22;23161;51.250;5.554;2023-03-01T02:55:15;-4.10;99.90
37274;DHT22;23161;51.250;5.554;2023-03-01T02:57:45;-4.00;99.90
37274;DHT22;23161;51.250;5.554;2023-03-01T03:00:18;-4.20;99.90
37274;DHT22;23161;51.250;5.554;2023-03-01T03:02:46;-4.10;99.90
37274;DHT22;23161;51.250;5.554;2023-03-01T03:05:19;-4.20;99.90
37274;DHT22;23161;51.250;5.554;2023-03-01T03:07:47;-4.10;99.90
37274;DHT22;23161;51.250;5.554;2023-03-01T03:10:21;-3.90;99.90
37274;DHT22;23161;51.250;5.554;2023-03-01T03:12:56;-3.90;99.90
37274;DHT22;23161;51.250;5.554;2023-03-01T03:15:23;-3.90;99.90
37274;DHT22;23161;51.250;5.554;2023-03-01T03:17:50;-4.00;99.90
37274;DHT22;23161;51.250;5.554;2023-03-01T03:20:17;-3.90;99.90
37274;DHT22;23161;51.250;5.554;2023-03-01T03:22:48;-3.80;99.90
37274;DHT22;23161;51.250;5.554;2023-03-01T03:25:14;-3.80;99.90
37274;DHT22;23161;51.250;5.554;2023-03-01T03:27:42;-3.80;99.90
37274;DHT22;23161;51.250;5.554;2023-03-01T03:30:12;-4.00;99.90
37274;DHT22;23161;51.250;5.554;2023-03-01T03:32:42;-4.00;99.90
37274;DHT22;23161;51.250;5.554;2023-03-01T03:35:16;-4.10;99.90
37274;DHT22;23161;51.250;5.554;2023-03-01T03:37:41;-4.10;99.90
37274;DHT22;23161;51.250;5.554;2023-03-01T03:40:39;-4.00;99.90
37274;DHT22;23161;51.250;5.554;2023-03-01T03:43:16;-4.10;99.90
37274;DHT22;23161;51.250;5.554;2023-03-01T03:45:44;-4.20;99.90
37274;DHT22;23161;51.250;5.554;2023-03-01T03:48:11;-4.20;99.90
37274;DHT22;23161;51.250;5.554;2023-03-01T03:50:39;-4.20;99.90
37274;DHT22;23161;51.250;5.554;2023-03-01T03:53:08;-4.10;99.90
37274;DHT22;23161;51.250;5.554;2023-03-01T03:55:35;-4.20;99.90
37274;DHT22;23161;51.250;5.554;2023-03-01T03:58:06;-4.20;99.90
37274;DHT22;23161;51.250;5.554;2023-03-01T04:00:40;-4.20;99.90
37274;DHT22;23161;51.250;5.554;2023-03-01T04:03:07;-4.40;99.90
37274;DHT22;23161;51.250;5.554;2023-03-01T04:05:33;-4.40;99.90
37274;DHT22;23161;51.250;5.554;2023-03-01T04:08:00;-4.40;99.90
37274;DHT22;23161;51.250;5.554;2023-03-01T04:10:51;-4.40;99.90
37274;DHT22;23161;51.250;5.554;2023-03-01T04:13:20;-4.30;99.90
37274;DHT22;23161;51.250;5.554;2023-03-01T04:15:50;-4.30;99.90
37274;DHT22;23161;51.250;5.554;2023-03-01T04:18:17;-4.40;99.90
37274;DHT22;23161;51.250;5.554;2023-03-01T04:20:44;-4.40;99.90
37274;DHT22;23161;51.250;5.554;2023-03-01T04:23:18;-4.30;99.90
37274;DHT22;23161;51.250;5.554;2023-03-01T04:25:57;-4.40;99.90
37274;DHT22;23161;51.250;5.554;2023-03-01T04:28:31;-4.50;99.90
37274;DHT22;23161;51.250;5.554;2023-03-01T04:31:03;-4.60;99.90
37274;DHT22;23161;51.250;5.554;2023-03-01T04:33:44;-4.70;99.90
37274;DHT22;23161;51.250;5.554;2023-03-01T04:36:11;-4.80;99.90
37274;DHT22;23161;51.250;5.554;2023-03-01T04:38:38;-4.80;99.90
37274;DHT22;23161;51.250;5.554;2023-03-01T04:41:09;-4.90;99.90
37274;DHT22;23161;51.250;5.554;2023-03-01T04:43:35;-4.90;99.90
37274;DHT22;23161;51.250;5.554;2023-03-01T04:46:03;-4.90;99.90
37274;DHT22;23161;51.250;5.554;2023-03-01T04:48:30;-4.80;99.90
37274;DHT22;23161;51.250;5.554;2023-03-01T04:50:59;-4.90;99.90
37274;DHT22;23161;51.250;5.554;2023-03-01T04:53:25;-4.90;99.90
37274;DHT22;23161;51.250;5.554;2023-03-01T04:55:51;-4.90;99.90
37274;DHT22;23161;51.250;5.554;2023-03-01T04:58:17;-4.90;99.90
37274;DHT22;23161;51.250;5.554;2023-03-01T05:00:42;-4.90;99.90
37274;DHT22;23161;51.250;5.554;2023-03-01T05:03:09;-4.80;99.90
37274;DHT22;23161;51.250;5.554;2023-03-01T05:05:36;-4.90;99.90
37274;DHT22;23161;51.250;5.554;2023-03-01T05:08:07;-4.90;99.90
37274;DHT22;23161;51.250;5.554;2023-03-01T05:10:35;-4.80;99.90
37274;DHT22;23161;51.250;5.554;2023-03-01T05:13:02;-4.80;99.90
37274;DHT22;23161;51.250;5.554;2023-03-01T05:15:30;-4.90;99.90
37274;DHT22;23161;51.250;5.554;2023-03-01T05:17:58;-4.90;99.90
37274;DHT22;23161;51.250;5.554;2023-03-01T05:20:28;-5.00;99.90
37274;DHT22;23161;51.250;5.554;2023-03-01T05:22:59;-5.00;99.90
37274;DHT22;23161;51.250;5.554;2023-03-01T05:25:26;-5.10;99.90
37274;DHT22;23161;51.250;5.554;2023-03-01T05:27:52;-5.10;99.90
37274;DHT22;23161;51.250;5.554;2023-03-01T05:30:18;-5.20;99.90
37274;DHT22;23161;51.250;5.554;2023-03-01T05:32:49;-5.20;99.90
37274;DHT22;23161;51.250;5.554;2023-03-01T05:35:17;-5.20;99.90
37274;DHT22;23161;51.250;5.554;2023-03-01T05:37:45;-5.20;99.90
37274;DHT22;23161;51.250;5.554;2023-03-01T05:40:16;-5.20;99.90
37274;DHT22;23161;51.250;5.554;2023-03-01T05:42:47;-5.20;99.90
37274;DHT22;23161;51.250;5.554;2023-03-01T05:45:14;-5.20;99.90
37274;DHT22;23161;51.250;5.554;2023-03-01T05:47:41;-5.10;99.90
37274;DHT22;23161;51.250;5.554;2023-03-01T05:50:19;-5.30;99.90
37274;DHT22;23161;51.250;5.554;2023-03-01T05:52:50;-5.30;99.90
37274;DHT22;23161;51.250;5.554;2023-03-01T05:55:18;-5.30;99.90
37274;DHT22;23161;51.250;5.554;2023-03-01T05:57:45;-5.60;99.90
37274;DHT22;23161;51.250;5.554;2023-03-01T06:00:12;-5.50;99.90
37274;DHT22;23161;51.250;5.554;2023-03-01T06:02:38;-5.40;99.90
37274;DHT22;23161;51.250;5.554;2023-03-01T06:05:09;-5.40;99.90
37274;DHT22;23161;51.250;5.554;2023-03-01T06:07:35;-5.40;99.90
37274;DHT22;23161;51.250;5.554;2023-03-01T06:10:03;-5.40;99.90
37274;DHT22;23161;51.250;5.554;2023-03-01T06:12:34;-5.40;99.90
37274;DHT22;23161;51.250;5.554;2023-03-01T06:15:00;-5.50;99.90
37274;DHT22;23161;51.250;5.554;2023-03-01T06:17:29;-5.40;99.90
37274;DHT22;23161;51.250;5.554;2023-03-01T06:19:55;-5.50;99.90
37274;DHT22;23161;51.250;5.554;2023-03-01T06:22:21;-5.50;99.90
37274;DHT22;23161;51.250;5.554;2023-03-01T06:24:47;-5.50;99.90
37274;DHT22;23161;51.250;5.554;2023-03-01T06:27:13;-5.50;99.90
37274;DHT22;23161;51.250;5.554;2023-03-01T06:29:39;-5.50;99.90
37274;DHT22;23161;51.250;5.554;2023-03-01T06:32:05;-5.40;99.90
37274;DHT22;23161;51.250;5.554;2023-03-01T06:34:31;-5.40;99.90
37274;DHT22;23161;51.250;5.554;2023-03-01T06:36:57;-5.40;99.90
37274;DHT22;23161;51.250;5.554;2023-03-01T06:39:23;-5.30;99.90
37274;DHT22;23161;51.250;5.554;2023-03-01T06:41:49;-5.20;99.90
37274;DHT22;23161;51.250;5.554;2023-03-01T06:44:14;-5.00;99.90
37274;DHT22;23161;51.250;5.554;2023-03-01T06:46:40;-4.90;99.90
37274;DHT22;23161;51.250;5.554;2023-03-01T06:49:06;-4.70;99.90
37274;DHT22;23161;51.250;5.554;2023-03-01T06:51:36;-4.50;99.90
37274;DHT22;23161;51.250;5.554;2023-03-01T06:54:04;-4.30;99.90
37274;DHT22;23161;51.250;5.554;2023-03-01T06:56:30;-4.10;99.90
37274;DHT22;23161;51.250;5.554;2023-03-01T06:58:56;-3.90;99.90
37274;DHT22;23161;51.250;5.554;2023-03-01T07:01:22;-3.60;99.90
37274;DHT22;23161;51.250;5.554;2023-03-01T07:03:48;-3.00;99.90
37274;DHT22;23161;51.250;5.554;2023-03-01T07:06:14;-2.40;99.90
37274;DHT22;23161;51.250;5.554;2023-03-01T07:08:40;-2.20;99.90
37274;DHT22;23161;51.250;5.554;2023-03-01T07:11:05;-1.30;99.90
37274;DHT22;23161;51.250;5.554;2023-03-01T07:13:31;-0.10;99.90
37274;DHT22;23161;51.250;5.554;2023-03-01T07:15:57;0.80;99.90
37274;DHT22;23161;51.250;5.554;2023-03-01T07:18:23;0.90;99.90
37274;DHT22;23161;51.250;5.554;2023-03-01T07:20:49;1.60;99.90
37274;DHT22;23161;51.250;5.554;2023-03-01T07:23:15;2.10;99.90
37274;DHT22;23161;51.250;5.554;2023-03-01T07:25:41;2.10;99.90
37274;DHT22;23161;51.250;5.554;2023-03-01T07:28:07;1.90;99.90
37274;DHT22;23161;51.250;5.554;2023-03-01T07:30:33;2.50;99.90
37274;DHT22;23161;51.250;5.554;2023-03-01T07:32:59;3.10;99.90
37274;DHT22;23161;51.250;5.554;2023-03-01T07:35:26;3.40;99.90
37274;DHT22;23161;51.250;5.554;2023-03-01T07:37:52;4.10;99.90
37274;DHT22;23161;51.250;5.554;2023-03-01T07:40:18;4.10;99.90
37274;DHT22;23161;51.250;5.554;2023-03-01T07:42:44;4.20;99.90
37274;DHT22;23161;51.250;5.554;2023-03-01T07:45:11;4.80;99.90
37274;DHT22;23161;51.250;5.554;2023-03-01T07:47:37;5.70;99.90
37274;DHT22;23161;51.250;5.554;2023-03-01T07:50:04;6.30;99.90
37274;DHT22;23161;51.250;5.554;2023-03-01T07:52:30;6.70;98.70
37274;DHT22;23161;51.250;5.554;2023-03-01T07:54:56;8.00;97.00
37274;DHT22;23161;51.250;5.554;2023-03-01T07:57:22;9.20;94.20
37274;DHT22;23161;51.250;5.554;2023-03-01T07:59:48;10.40;91.10
37274;DHT22;23161;51.250;5.554;2023-03-01T08:02:14;11.00;88.30
37274;DHT22;23161;51.250;5.554;2023-03-01T08:04:41;11.90;84.20
37274;DHT22;23161;51.250;5.554;2023-03-01T08:07:07;13.10;80.80
37274;DHT22;23161;51.250;5.554;2023-03-01T08:09:36;13.30;77.00
37274;DHT22;23161;51.250;5.554;2023-03-01T08:12:03;13.40;74.30
37274;DHT22;23161;51.250;5.554;2023-03-01T08:14:31;13.40;74.60
37274;DHT22;23161;51.250;5.554;2023-03-01T08:16:57;13.90;72.80
37274;DHT22;23161;51.250;5.554;2023-03-01T08:19:22;14.20;71.60
37274;DHT22;23161;51.250;5.554;2023-03-01T08:21:48;14.70;69.60
37274;DHT22;23161;51.250;5.554;2023-03-01T08:24:14;14.10;68.60
37274;DHT22;23161;51.250;5.554;2023-03-01T08:26:40;14.80;68.10
37274;DHT22;23161;51.250;5.554;2023-03-01T08:29:06;15.20;66.70
37274;DHT22;23161;51.250;5.554;2023-03-01T08:31:36;14.40;67.40
37274;DHT22;23161;51.250;5.554;2023-03-01T08:34:05;14.50;67.10
37274;DHT22;23161;51.250;5.554;2023-03-01T08:36:37;14.70;66.20
37274;DHT22;23161;51.250;5.554;2023-03-01T08:39:04;15.00;65.80
37274;DHT22;23161;51.250;5.554;2023-03-01T08:41:30;15.20;64.60
37274;DHT22;23161;51.250;5.554;2023-03-01T08:43:56;15.20;64.40
37274;DHT22;23161;51.250;5.554;2023-03-01T08:46:31;15.30;64.60
37274;DHT22;23161;51.250;5.554;2023-03-01T08:48:58;15.60;63.50
37274;DHT22;23161;51.250;5.554;2023-03-01T08:51:24;15.70;62.80
37274;DHT22;23161;51.250;5.554;2023-03-01T08:53:50;15.20;64.10
37274;DHT22;23161;51.250;5.554;2023-03-01T08:56:17;15.80;63.20
37274;DHT22;23161;51.250;5.554;2023-03-01T08:58:45;16.60;61.10
37274;DHT22;23161;51.250;5.554;2023-03-01T09:01:13;14.90;62.60
37274;DHT22;23161;51.250;5.554;2023-03-01T09:03:40;13.70;64.10
37274;DHT22;23161;51.250;5.554;2023-03-01T09:06:07;13.10;64.70
37274;DHT22;23161;51.250;5.554;2023-03-01T09:08:38;13.90;64.10
37274;DHT22;23161;51.250;5.554;2023-03-01T09:11:06;13.90;64.40
37274;DHT22;23161;51.250;5.554;2023-03-01T09:13:32;13.60;64.30
37274;DHT22;23161;51.250;5.554;2023-03-01T09:16:01;13.00;64.90
37274;DHT22;23161;51.250;5.554;2023-03-01T09:18:27;12.00;66.30
37274;DHT22;23161;51.250;5.554;2023-03-01T09:21:00;12.10;67.20
37274;DHT22;23161;51.250;5.554;2023-03-01T09:23:26;11.70;67.30
37274;DHT22;23161;51.250;5.554;2023-03-01T09:25:52;11.00;69.40
37274;DHT22;23161;51.250;5.554;2023-03-01T09:28:18;10.30;69.30
37274;DHT22;23161;51.250;5.554;2023-03-01T09:30:44;10.40;70.00
37274;DHT22;23161;51.250;5.554;2023-03-01T09:33:09;10.10;71.00
37274;DHT22;23161;51.250;5.554;2023-03-01T09:35:40;10.80;69.90
37274;DHT22;23161;51.250;5.554;2023-03-01T09:38:14;11.50;68.00
37274;DHT22;23161;51.250;5.554;2023-03-01T09:40:44;11.20;68.50
37274;DHT22;23161;51.250;5.554;2023-03-01T09:45:49;11.70;68.60
37274;DHT22;23161;51.250;5.554;2023-03-01T09:48:20;12.10;67.60
37274;DHT22;23161;51.250;5.554;2023-03-01T09:50:48;12.30;67.30
37274;DHT22;23161;51.250;5.554;2023-03-01T09:53:21;10.90;69.40
37274;DHT22;23161;51.250;5.554;2023-03-01T09:56:09;11.30;68.90
37274;DHT22;23161;51.250;5.554;2023-03-01T10:06:51;9.70;71.90
37274;DHT22;23161;51.250;5.554;2023-03-01T10:09:18;9.30;72.10
37274;DHT22;23161;51.250;5.554;2023-03-01T10:11:48;9.40;72.10
37274;DHT22;23161;51.250;5.554;2023-03-01T10:14:32;8.60;73.10
37274;DHT22;23161;51.250;5.554;2023-03-01T10:19:50;8.70;74.10
37274;DHT22;23161;51.250;5.554;2023-03-01T10:22:22;8.60;74.50
37274;DHT22;23161;51.250;5.554;2023-03-01T10:24:51;8.50;73.70
37274;DHT22;23161;51.250;5.554;2023-03-01T10:27:25;8.30;74.30
37274;DHT22;23161;51.250;5.554;2023-03-01T10:32:39;8.70;73.80
37274;DHT22;23161;51.250;5.554;2023-03-01T10:35:25;8.50;74.20
37274;DHT22;23161;51.250;5.554;2023-03-01T10:38:12;8.40;74.60
37274;DHT22;23161;51.250;5.554;2023-03-01T10:40:55;7.80;74.80
37274;DHT22;23161;51.250;5.554;2023-03-01T10:43:27;7.90;75.40
37274;DHT22;23161;51.250;5.554;2023-03-01T10:45:53;8.20;74.40
37274;DHT22;23161;51.250;5.554;2023-03-01T10:48:21;8.50;75.00
37274;DHT22;23161;51.250;5.554;2023-03-01T10:53:48;8.90;73.50
37274;DHT22;23161;51.250;5.554;2023-03-01T10:56:17;9.30;73.50
37274;DHT22;23161;51.250;5.554;2023-03-01T10:59:01;9.90;72.60
37274;DHT22;23161;51.250;5.554;2023-03-01T11:01:35;9.90;71.50
37274;DHT22;23161;51.250;5.554;2023-03-01T11:06:37;8.90;73.50
37274;DHT22;23161;51.250;5.554;2023-03-01T11:09:15;8.90;73.80
37274;DHT22;23161;51.250;5.554;2023-03-01T11:11:41;9.00;72.50
37274;DHT22;23161;51.250;5.554;2023-03-01T11:14:19;9.30;71.70
37274;DHT22;23161;51.250;5.554;2023-03-01T11:16:48;9.70;70.90
37274;DHT22;23161;51.250;5.554;2023-03-01T11:19:18;9.60;71.30
37274;DHT22;23161;51.250;5.554;2023-03-01T11:22:33;9.80;70.50
37274;DHT22;23161;51.250;5.554;2023-03-01T11:24:49;9.70;72.30
37274;DHT22;23161;51.250;5.554;2023-03-01T11:27:18;9.30;72.00
37274;DHT22;23161;51.250;5.554;2023-03-01T11:30:03;9.10;73.60
37274;DHT22;23161;51.250;5.554;2023-03-01T11:32:43;8.60;72.90
37274;DHT22;23161;51.250;5.554;2023-03-01T11:35:20;8.80;73.80
37274;DHT22;23161;51.250;5.554;2023-03-01T11:40:47;8.00;75.10
37274;DHT22;23161;51.250;5.554;2023-03-01T11:57:32;8.20;75.20
37274;DHT22;23161;51.250;5.554;2023-03-01T12:08:28;8.50;73.10
37274;DHT22;23161;51.250;5.554;2023-03-01T12:19:06;7.60;73.60
37274;DHT22;23161;51.250;5.554;2023-03-01T12:21:50;7.50;75.90
37274;DHT22;23161;51.250;5.554;2023-03-01T12:33:17;8.10;73.70
37274;DHT22;23161;51.250;5.554;2023-03-01T12:47:40;8.80;70.70
37274;DHT22;23161;51.250;5.554;2023-03-01T12:50:35;8.60;73.10
37274;DHT22;23161;51.250;5.554;2023-03-01T12:53:03;8.80;73.20
37274;DHT22;23161;51.250;5.554;2023-03-01T12:55:39;8.90;74.00
37274;DHT22;23161;51.250;5.554;2023-03-01T12:58:28;9.00;72.60
37274;DHT22;23161;51.250;5.554;2023-03-01T13:11:50;8.50;73.40
37274;DHT22;23161;51.250;5.554;2023-03-01T13:16:54;8.00;75.50
37274;DHT22;23161;51.250;5.554;2023-03-01T13:19:22;8.20;75.90
37274;DHT22;23161;51.250;5.554;2023-03-01T13:21:52;8.20;75.90
37274;DHT22;23161;51.250;5.554;2023-03-01T13:24:39;8.20;76.20
37274;DHT22;23161;51.250;5.554;2023-03-01T13:29:45;7.90;76.20
37274;DHT22;23161;51.250;5.554;2023-03-01T13:32:25;7.90;76.80
37274;DHT22;23161;51.250;5.554;2023-03-01T13:34:52;7.90;76.40
37274;DHT22;23161;51.250;5.554;2023-03-01T13:37:23;8.00;76.70
37274;DHT22;23161;51.250;5.554;2023-03-01T13:39:52;7.90;76.80
37274;DHT22;23161;51.250;5.554;2023-03-01T13:45:14;8.20;75.00
37274;DHT22;23161;51.250;5.554;2023-03-01T13:47:41;8.00;75.20
37274;DHT22;23161;51.250;5.554;2023-03-01T13:50:18;7.60;75.30
37274;DHT22;23161;51.250;5.554;2023-03-01T13:52:59;7.50;76.50
37274;DHT22;23161;51.250;5.554;2023-03-01T13:58:05;7.20;75.60
37274;DHT22;23161;51.250;5.554;2023-03-01T14:00:39;7.20;77.30
37274;DHT22;23161;51.250;5.554;2023-03-01T14:03:18;7.30;77.20
37274;DHT22;23161;51.250;5.554;2023-03-01T14:06:02;7.40;76.10
37274;DHT22;23161;51.250;5.554;2023-03-01T14:08:30;7.40;74.40
37274;DHT22;23161;51.250;5.554;2023-03-01T14:13:29;7.40;75.90
37274;DHT22;23161;51.250;5.554;2023-03-01T14:18:43;7.60;77.50
37274;DHT22;23161;51.250;5.554;2023-03-01T14:21:14;7.60;76.90
37274;DHT22;23161;51.250;5.554;2023-03-01T14:23:41;7.60;76.70
37274;DHT22;23161;51.250;5.554;2023-03-01T14:26:08;7.50;76.30
37274;DHT22;23161;51.250;5.554;2023-03-01T14:28:36;7.40;77.20
37274;DHT22;23161;51.250;5.554;2023-03-01T14:33:57;7.00;78.30
37274;DHT22;23161;51.250;5.554;2023-03-01T14:36:29;6.90;76.20
37274;DHT22;23161;51.250;5.554;2023-03-01T14:38:55;6.70;75.80
37274;DHT22;23161;51.250;5.554;2023-03-01T14:41:26;6.80;76.40
37274;DHT22;23161;51.250;5.554;2023-03-01T14:44:03;6.70;77.50
37274;DHT22;23161;51.250;5.554;2023-03-01T14:46:36;6.80;76.90
37274;DHT22;23161;51.250;5.554;2023-03-01T14:49:05;6.80;78.00
37274;DHT22;23161;51.250;5.554;2023-03-01T14:51:39;6.90;79.50
37274;DHT22;23161;51.250;5.554;2023-03-01T14:57:24;6.90;78.30
37274;DHT22;23161;51.250;5.554;2023-03-01T14:59:53;6.90;78.90
37274;DHT22;23161;51.250;5.554;2023-03-01T15:02:23;6.90;79.10
37274;DHT22;23161;51.250;5.554;2023-03-01T15:04:52;6.90;77.80
37274;DHT22;23161;51.250;5.554;2023-03-01T15:07:18;6.80;78.60
37274;DHT22;23161;51.250;5.554;2023-03-01T15:09:45;6.70;77.80
37274;DHT22;23161;51.250;5.554;2023-03-01T15:12:36;6.70;79.10
37274;DHT22;23161;51.250;5.554;2023-03-01T15:17:52;6.70;79.80
37274;DHT22;23161;51.250;5.554;2023-03-01T15:20:21;6.60;78.30
37274;DHT22;23161;51.250;5.554;2023-03-01T15:22:52;6.50;77.90
37274;DHT22;23161;51.250;5.554;2023-03-01T15:25:19;6.50;77.40
37274;DHT22;23161;51.250;5.554;2023-03-01T15:27:48;6.40;77.80
37274;DHT22;23161;51.250;5.554;2023-03-01T15:33:17;6.40;78.00
37274;DHT22;23161;51.250;5.554;2023-03-01T15:35:49;6.30;78.30
37274;DHT22;23161;51.250;5.554;2023-03-01T15:41:37;6.40;78.70
37274;DHT22;23161;51.250;5.554;2023-03-01T15:44:17;6.40;80.30
37274;DHT22;23161;51.250;5.554;2023-03-01T15:46:46;6.40;80.80
37274;DHT22;23161;51.250;5.554;2023-03-01T15:51:57;6.40;79.60
37274;DHT22;23161;51.250;5.554;2023-03-01T15:54:25;6.30;77.70
37274;DHT22;23161;51.250;5.554;2023-03-01T15:56:51;6.30;78.00
37274;DHT22;23161;51.250;5.554;2023-03-01T15:59:18;6.20;78.80
37274;DHT22;23161;51.250;5.554;2023-03-01T16:01:44;6.20;78.60
37274;DHT22;23161;51.250;5.554;2023-03-01T16:04:11;6.20;79.00
37274;DHT22;23161;51.250;5.554;2023-03-01T16:06:42;6.20;79.90
37274;DHT22;23161;51.250;5.554;2023-03-01T16:09:07;6.10;79.50
37274;DHT22;23161;51.250;5.554;2023-03-01T16:11:35;6.10;79.90
37274;DHT22;23161;51.250;5.554;2023-03-01T16:14:03;6.00;79.70
37274;DHT22;23161;51.250;5.554;2023-03-01T16:16:29;6.00;80.50
37274;DHT22;23161;51.250;5.554;2023-03-01T16:18:56;6.00;79.70
37274;DHT22;23161;51.250;5.554;2023-03-01T16:21:23;5.90;80.40
37274;DHT22;23161;51.250;5.554;2023-03-01T16:23:50;5.90;80.40
37274;DHT22;23161;51.250;5.554;2023-03-01T16:26:17;5.90;80.80
37274;DHT22;23161;51.250;5.554;2023-03-01T16:28:44;5.80;80.30
37274;DHT22;23161;51.250;5.554;2023-03-01T16:31:11;5.70;80.70
37274;DHT22;23161;51.250;5.554;2023-03-01T16:33:37;5.70;80.10
37274;DHT22;23161;51.250;5.554;2023-03-01T16:36:08;5.70;81.20
37274;DHT22;23161;51.250;5.554;2023-03-01T16:38:34;5.60;81.20
37274;DHT22;23161;51.250;5.554;2023-03-01T16:41:00;5.60;81.30
37274;DHT22;23161;51.250;5.554;2023-03-01T16:43:26;5.50;81.30
37274;DHT22;23161;51.250;5.554;2023-03-01T16:45:53;5.50;82.30
37274;DHT22;23161;51.250;5.554;2023-03-01T16:48:18;5.40;83.20
37274;DHT22;23161;51.250;5.554;2023-03-01T16:50:44;5.40;82.90
37274;DHT22;23161;51.250;5.554;2023-03-01T16:53:10;5.30;83.40
37274;DHT22;23161;51.250;5.554;2023-03-01T16:55:36;5.30;83.90
37274;DHT22;23161;51.250;5.554;2023-03-01T16:58:03;5.20;84.60
37274;DHT22;23161;51.250;5.554;2023-03-01T17:00:29;5.10;85.20
37274;DHT22;23161;51.250;5.554;2023-03-01T17:02:55;5.00;85.70
37274;DHT22;23161;51.250;5.554;2023-03-01T17:05:22;4.90;86.00
37274;DHT22;23161;51.250;5.554;2023-03-01T17:07:49;4.80;86.70
37274;DHT22;23161;51.250;5.554;2023-03-01T17:10:14;4.70;87.50
37274;DHT22;23161;51.250;5.554;2023-03-01T17:12:40;4.70;88.00
37274;DHT22;23161;51.250;5.554;2023-03-01T17:15:06;4.60;89.00
37274;DHT22;23161;51.250;5.554;2023-03-01T17:17:32;4.50;89.30
37274;DHT22;23161;51.250;5.554;2023-03-01T17:20:00;4.40;90.00
37274;DHT22;23161;51.250;5.554;2023-03-01T17:22:25;4.30;90.20
37274;DHT22;23161;51.250;5.554;2023-03-01T17:24:51;4.20;90.80
37274;DHT22;23161;51.250;5.554;2023-03-01T17:27:17;4.10;90.80
37274;DHT22;23161;51.250;5.554;2023-03-01T17:29:43;4.00;91.20
37274;DHT22;23161;51.250;5.554;2023-03-01T17:32:09;4.00;91.40
37274;DHT22;23161;51.250;5.554;2023-03-01T17:34:35;3.90;91.60
37274;DHT22;23161;51.250;5.554;2023-03-01T17:37:02;3.80;91.70
37274;DHT22;23161;51.250;5.554;2023-03-01T17:39:28;3.80;92.00
37274;DHT22;23161;51.250;5.554;2023-03-01T17:42:01;3.60;92.20
37274;DHT22;23161;51.250;5.554;2023-03-01T17:44:27;3.60;92.40
37274;DHT22;23161;51.250;5.554;2023-03-01T17:46:53;3.50;92.50
37274;DHT22;23161;51.250;5.554;2023-03-01T17:49:19;3.50;92.70
37274;DHT22;23161;51.250;5.554;2023-03-01T17:51:44;3.50;92.70
37274;DHT22;23161;51.250;5.554;2023-03-01T17:54:10;3.40;92.60